< < Back
Terminal Aerodrome Forecast


Current Version              Previous Versions:   1  2  3  4  5  6  7  8  9  

Terminal Aerodrome Forecast

827
FTUS42 KJAX 171800 AAA
TAFGNV
TAF AMD
KGNV 171812Z 1718/1818 VRB05KT P6SM VCSH SCT025 BKN250
      TEMPO 1718/1720 SHRA BKN025
     FM172000 06006KT P6SM VCSH SCT035
     FM180300 VRB03KT P6SM SCT040
     FM180800 00000KT 2SM BR SCT002
     FM181300 VRB05KT P6SM FEW005=

Latest METAR

665
SAUS70 KWBC 180300 RRB
MTRGNV
METAR KGNV 180253Z AUTO 00000KT 10SM CLR 23/22 A2993 RMK AO2 SLP133
T02280217 51019


USA.gov is the U.S. government's official web portal to all federal, state and local government web resources and services.